createdAt,value
2019-02-09T00:00:00.722Z,99803.17
2019-02-09T00:02:35.278Z,99807.64
2019-02-09T00:05:06.026Z,99807.23
2019-02-09T00:07:36.851Z,99807.38
2019-02-09T00:10:08.097Z,99797.27
2019-02-09T00:12:39.542Z,99807.39
2019-02-09T00:15:09.885Z,99809.43
2019-02-09T00:17:42.697Z,99799.48
2019-02-09T00:20:13.100Z,99795.80
2019-02-09T00:22:43.720Z,99797.34
2019-02-09T00:25:14.446Z,99787.79
2019-02-09T00:27:45.184Z,99785.19
2019-02-09T00:30:17.851Z,99786.74
2019-02-09T00:32:50.418Z,99780.98
2019-02-09T00:35:21.551Z,99777.94
2019-02-09T00:37:52.281Z,99772.61
2019-02-09T00:40:23.631Z,99771.45
2019-02-09T00:42:56.295Z,99769.20
2019-02-09T00:45:26.869Z,99760.46
2019-02-09T00:48:00.388Z,99761.75
2019-02-09T00:50:31.031Z,99747.44
2019-02-09T00:53:02.549Z,99745.78
2019-02-09T00:55:33.165Z,99746.89
2019-02-09T00:58:03.830Z,99733.16
2019-02-09T01:00:34.159Z,99732.55
2019-02-09T01:03:07.280Z,99731.42
2019-02-09T01:05:43.238Z,99731.30
2019-02-09T01:08:15.693Z,99723.66
2019-02-09T01:10:46.493Z,99732.52
2019-02-09T01:13:18.478Z,99726.91
2019-02-09T01:15:50.241Z,99740.08
2019-02-09T01:18:21.916Z,99733.22
2019-02-09T01:20:52.568Z,99727.23
2019-02-09T01:23:25.911Z,99729.13
2019-02-09T01:25:58.626Z,99713.94
2019-02-09T01:28:29.027Z,99711.77
2019-02-09T01:30:59.835Z,99716.19
2019-02-09T01:33:30.880Z,99719.77
2019-02-09T01:36:01.100Z,99725.08
2019-02-09T01:38:31.354Z,99723.44
2019-02-09T01:41:03.184Z,99719.55
2019-02-09T01:43:37.321Z,99720.14
2019-02-09T01:46:07.771Z,99719.97
2019-02-09T01:48:38.079Z,99724.54
2019-02-09T01:51:09.938Z,99713.36
2019-02-09T01:53:42.764Z,99705.17
2019-02-09T01:56:13.579Z,99701.55
2019-02-09T01:58:44.335Z,99710.36
2019-02-09T02:01:16.408Z,99710.87
2019-02-09T02:03:47.073Z,99714.67
2019-02-09T02:06:18.380Z,99707.21
2019-02-09T02:08:51.945Z,99708.56
2019-02-09T02:11:23.065Z,99695.97
2019-02-09T02:13:54.176Z,99697.83
2019-02-09T02:16:25.454Z,99707.20
2019-02-09T02:18:56.643Z,99699.20
2019-02-09T02:21:28.154Z,99698.41
2019-02-09T02:24:01.204Z,99709.88
2019-02-09T02:26:32.296Z,99705.45
2019-02-09T02:29:02.466Z,99708.50
2019-02-09T02:31:32.778Z,99712.70
2019-02-09T02:34:03.480Z,99707.61
2019-02-09T02:36:35.236Z,99710.20
2019-02-09T02:39:10.817Z,99720.84
2019-02-09T02:41:41.353Z,99709.96
2019-02-09T02:44:15.948Z,99677.28
2019-02-09T02:46:47.445Z,99666.32
2019-02-09T02:49:19.034Z,99663.10
2019-02-09T02:51:49.995Z,99665.11
2019-02-09T02:54:21.241Z,99683.32
2019-02-09T02:56:51.928Z,99703.69
2019-02-09T02:59:22.219Z,99707.33
2019-02-09T03:01:53.465Z,99695.56
2019-02-09T03:04:24.061Z,99685.80
2019-02-09T03:06:54.785Z,99682.80
2019-02-09T03:09:26.043Z,99676.79
2019-02-09T03:11:59.695Z,99687.14
2019-02-09T03:14:30.934Z,99698.70
2019-02-09T03:17:01.598Z,99698.44
2019-02-09T03:19:32.324Z,99709.12
2019-02-09T03:22:02.525Z,99707.00
2019-02-09T03:24:32.756Z,99704.83
2019-02-09T03:27:05.797Z,99718.22
2019-02-09T03:29:36.010Z,99727.69
2019-02-09T03:32:06.214Z,99733.22
2019-02-09T03:34:37.788Z,99735.35
2019-02-09T03:37:08.324Z,99737.41
2019-02-09T03:39:39.977Z,99731.95
2019-02-09T03:42:11.177Z,99738.73
2019-02-09T03:44:43.203Z,99748.30
2019-02-09T03:47:15.389Z,99746.06
2019-02-09T03:49:47.373Z,99744.78
2019-02-09T03:52:18.435Z,99748.71
2019-02-09T03:54:50.102Z,99746.91
2019-02-09T03:57:21.814Z,99749.89
2019-02-09T03:59:51.995Z,99761.19
2019-02-09T04:02:24.304Z,99760.90
2019-02-09T04:04:54.493Z,99769.16
2019-02-09T04:07:25.205Z,99766.41
2019-02-09T04:09:57.664Z,99765.82
2019-02-09T04:12:30.262Z,99762.05
2019-02-09T04:15:02.799Z,99758.42
2019-02-09T04:17:35.479Z,99754.23
2019-02-09T04:20:10.162Z,99755.69
2019-02-09T04:22:41.717Z,99764.94
2019-02-09T04:25:13.932Z,99768.14
2019-02-09T04:27:45.833Z,99774.84
2019-02-09T04:30:20.446Z,99787.23
2019-02-09T04:32:52.390Z,99786.34
2019-02-09T04:35:24.921Z,99794.80
2019-02-09T04:37:55.498Z,99786.89
2019-02-09T04:40:29.460Z,99785.34
2019-02-09T04:43:00.964Z,99787.97
2019-02-09T04:45:34.514Z,99795.03
2019-02-09T04:48:06.583Z,99795.06
2019-02-09T04:50:39.666Z,99803.55
2019-02-09T04:53:12.249Z,99809.64
2019-02-09T04:55:44.110Z,99826.51
2019-02-09T04:58:16.071Z,99825.08
2019-02-09T05:00:47.192Z,99834.39
2019-02-09T05:03:19.716Z,99837.55
2019-02-09T05:05:52.454Z,99834.67
2019-02-09T05:08:23.105Z,99830.04
2019-02-09T05:10:55.283Z,99832.84
2019-02-09T05:13:26.771Z,99844.16
2019-02-09T05:15:58.883Z,99837.56
2019-02-09T05:18:30.923Z,99838.20
2019-02-09T05:21:03.699Z,99828.41
2019-02-09T05:23:36.901Z,99831.15
2019-02-09T05:26:08.882Z,99842.94
2019-02-09T05:28:39.962Z,99840.24
2019-02-09T05:31:12.387Z,99844.72
2019-02-09T05:33:43.012Z,99866.11
2019-02-09T05:36:18.291Z,99851.80
2019-02-09T05:38:48.888Z,99849.57
2019-02-09T05:41:20.218Z,99859.29
2019-02-09T05:43:51.253Z,99859.00
2019-02-09T05:46:24.576Z,99872.28
2019-02-09T05:48:57.027Z,99875.24
2019-02-09T05:51:29.612Z,99883.02
2019-02-09T05:54:00.959Z,99886.38
2019-02-09T05:56:35.402Z,99893.45
2019-02-09T05:59:08.053Z,99897.03
2019-02-09T06:01:39.065Z,99891.59
2019-02-09T06:04:09.838Z,99902.73
2019-02-09T06:06:42.528Z,99900.41
2019-02-09T06:09:13.156Z,99908.07
2019-02-09T06:11:45.021Z,99899.84
2019-02-09T06:14:15.568Z,99914.77
2019-02-09T06:16:47.784Z,99911.75
2019-02-09T06:19:18.344Z,99911.59
2019-02-09T06:21:48.539Z,99910.91
2019-02-09T06:24:19.460Z,99921.38
2019-02-09T06:26:50.858Z,99933.72
2019-02-09T06:29:21.115Z,99928.59
2019-02-09T06:31:52.105Z,99929.57
2019-02-09T06:34:22.360Z,99935.83
2019-02-09T06:36:55.876Z,99939.48
2019-02-09T06:39:31.384Z,99945.89
2019-02-09T06:42:02.810Z,99944.81
2019-02-09T06:44:34.042Z,99938.30
2019-02-09T06:47:07.802Z,99935.27
2019-02-09T06:49:39.778Z,99931.18
2019-02-09T06:52:09.980Z,99936.76
2019-02-09T06:54:40.283Z,99943.34
2019-02-09T06:57:11.808Z,99956.03
2019-02-09T06:59:42.505Z,99955.42
2019-02-09T07:02:15.338Z,99957.89
2019-02-09T07:04:46.729Z,99955.73
2019-02-09T07:07:18.684Z,99953.91
2019-02-09T07:09:52.282Z,99969.05
2019-02-09T07:12:25.191Z,99969.16
2019-02-09T07:14:55.455Z,99974.12
2019-02-09T07:17:26.642Z,99980.12
2019-02-09T07:19:56.949Z,99988.49
2019-02-09T07:22:30.017Z,99987.86
2019-02-09T07:25:00.348Z,99991.48
2019-02-09T07:27:32.405Z,100008.19
2019-02-09T07:30:03.126Z,100013.69
2019-02-09T07:32:34.942Z,100010.13
2019-02-09T07:35:06.940Z,100014.58
2019-02-09T07:37:37.850Z,100014.61
2019-02-09T07:40:12.233Z,100024.89
2019-02-09T07:42:44.528Z,100027.63
2019-02-09T07:45:18.077Z,100025.31
2019-02-09T07:47:50.675Z,100031.98
2019-02-09T07:50:22.945Z,100039.83
2019-02-09T07:52:54.941Z,100043.19
2019-02-09T07:55:26.534Z,100045.67
2019-02-09T07:57:58.765Z,100049.22
2019-02-09T08:00:30.235Z,100052.25
2019-02-09T08:03:02.817Z,100062.97
2019-02-09T08:05:36.739Z,100072.70
2019-02-09T08:08:08.820Z,100088.36
2019-02-09T08:10:40.462Z,100092.82
2019-02-09T08:13:12.411Z,100089.75
2019-02-09T08:15:45.805Z,100101.66
2019-02-09T08:18:16.669Z,100108.05
2019-02-09T08:20:49.033Z,100101.94
2019-02-09T08:23:19.444Z,100106.53
2019-02-09T08:25:52.129Z,100121.16
2019-02-09T08:28:24.002Z,100112.49
2019-02-09T08:30:56.047Z,100110.24
2019-02-09T08:33:27.082Z,100118.81
2019-02-09T08:35:58.155Z,100110.73
2019-02-09T08:38:28.407Z,100109.51
2019-02-09T08:40:58.902Z,100143.05
2019-02-09T08:43:30.600Z,100121.66
2019-02-09T08:46:01.250Z,100112.43
2019-02-09T08:48:33.937Z,100134.12
2019-02-09T08:51:10.349Z,100122.05
2019-02-09T08:53:43.633Z,100127.84
2019-02-09T08:56:15.583Z,100129.21
2019-02-09T08:58:47.912Z,100122.13
2019-02-09T09:01:19.482Z,100137.52
2019-02-09T09:03:52.172Z,100132.95
2019-02-09T09:06:25.856Z,100132.86
2019-02-09T09:08:57.800Z,100138.63
2019-02-09T09:11:28.772Z,100151.30
2019-02-09T09:14:00.721Z,100148.91
2019-02-09T09:16:32.255Z,100140.93
2019-02-09T09:19:03.831Z,100147.73
2019-02-09T09:21:34.832Z,100145.86
2019-02-09T09:24:05.907Z,100137.27
2019-02-09T09:26:37.902Z,100142.60
2019-02-09T09:29:09.633Z,100142.63
2019-02-09T09:31:41.050Z,100146.39
2019-02-09T09:34:11.848Z,100155.36
2019-02-09T09:36:43.530Z,100155.14
2019-02-09T09:39:13.840Z,100179.30
2019-02-09T09:41:45.760Z,100166.55
2019-02-09T09:44:17.726Z,100170.92
2019-02-09T09:46:49.234Z,100166.74
2019-02-09T09:49:20.509Z,100166.98
2019-02-09T09:51:50.757Z,100201.78
2019-02-09T09:54:21.441Z,100174.28
2019-02-09T09:56:53.563Z,100181.55
2019-02-09T09:59:25.615Z,100187.61
2019-02-09T10:01:56.292Z,100194.16
2019-02-09T10:04:27.914Z,100198.20
2019-02-09T10:06:59.403Z,100198.84
2019-02-09T10:09:35.728Z,100204.67
2019-02-09T10:12:06.366Z,100207.19
2019-02-09T10:14:38.217Z,100213.84
2019-02-09T10:17:09.364Z,100212.41
2019-02-09T10:19:40.472Z,100201.31
2019-02-09T10:22:11.414Z,100212.81
2019-02-09T10:24:44.153Z,100211.59
2019-02-09T10:27:16.075Z,100210.54
2019-02-09T10:29:47.848Z,100222.31
2019-02-09T10:32:19.100Z,100227.90
2019-02-09T10:34:50.288Z,100230.05
2019-02-09T10:37:21.294Z,100244.83
2019-02-09T10:39:52.379Z,100241.57
2019-02-09T10:42:22.860Z,100223.42
2019-02-09T10:44:53.977Z,100226.22
2019-02-09T10:47:25.501Z,100243.00
2019-02-09T10:49:58.291Z,100227.22
2019-02-09T10:52:28.895Z,100218.95
2019-02-09T10:54:59.213Z,100222.34
2019-02-09T10:57:30.811Z,100228.52
2019-02-09T11:00:03.017Z,100218.69
2019-02-09T11:02:33.198Z,100217.88
2019-02-09T11:05:03.632Z,100215.27
2019-02-09T11:07:34.693Z,100203.29
2019-02-09T11:10:09.783Z,100202.36
2019-02-09T11:12:40.754Z,100195.94
2019-02-09T11:15:14.866Z,100198.41
2019-02-09T11:17:46.398Z,100215.14
2019-02-09T11:20:19.094Z,100198.17
2019-02-09T11:22:50.967Z,100202.59
2019-02-09T11:25:22.181Z,100199.39
2019-02-09T11:27:53.310Z,100205.45
2019-02-09T11:30:27.029Z,100208.42
2019-02-09T11:33:02.085Z,100207.04
2019-02-09T11:35:31.045Z,100192.37
2019-02-09T11:38:01.797Z,100211.38
2019-02-09T11:40:33.843Z,100197.17
2019-02-09T11:43:06.029Z,100211.77
2019-02-09T11:45:40.538Z,100219.84
2019-02-09T11:48:13.324Z,100221.48
2019-02-09T11:50:45.745Z,100209.14
2019-02-09T11:53:16.869Z,100217.98
2019-02-09T11:55:49.109Z,100231.56
2019-02-09T11:58:21.662Z,100221.39
2019-02-09T12:00:54.734Z,100228.71
2019-02-09T12:03:26.347Z,100219.70
2019-02-09T12:05:57.072Z,100226.31
2019-02-09T12:08:28.261Z,100221.75
2019-02-09T12:10:59.280Z,100220.23
2019-02-09T12:13:31.324Z,100209.96
2019-02-09T12:16:05.997Z,100213.95
2019-02-09T12:18:37.118Z,100209.64
2019-02-09T12:21:08.026Z,100206.80
2019-02-09T12:23:39.098Z,100215.00
2019-02-09T12:26:10.381Z,100210.47
2019-02-09T12:28:42.383Z,100214.33
2019-02-09T12:31:14.880Z,100203.23
2019-02-09T12:33:46.226Z,100218.31
2019-02-09T12:36:17.679Z,100212.45
2019-02-09T12:38:49.623Z,100212.22
2019-02-09T12:41:21.604Z,100214.35
2019-02-09T12:43:53.431Z,100216.88
2019-02-09T12:46:25.932Z,100223.01
2019-02-09T12:48:57.259Z,100201.08
2019-02-09T12:51:29.261Z,100200.81
2019-02-09T12:54:00.325Z,100216.68
2019-02-09T12:56:32.374Z,100226.41
2019-02-09T12:59:04.347Z,100217.19
2019-02-09T13:01:37.575Z,100205.47
2019-02-09T13:04:09.431Z,100207.47
2019-02-09T13:06:40.935Z,100190.58
2019-02-09T13:09:14.600Z,100202.77
2019-02-09T13:11:45.496Z,100201.72
2019-02-09T13:14:15.738Z,100211.68
2019-02-09T13:16:47.702Z,100196.41
2019-02-09T13:19:18.935Z,100203.30
2019-02-09T13:21:50.773Z,100199.98
2019-02-09T13:24:22.147Z,100190.16
2019-02-09T13:26:53.560Z,100199.69
2019-02-09T13:29:24.314Z,100194.26
2019-02-09T13:31:55.213Z,100207.84
2019-02-09T13:34:27.445Z,100201.59
2019-02-09T13:36:58.347Z,100200.42
2019-02-09T13:39:29.128Z,100200.31
2019-02-09T13:41:59.942Z,100219.06
2019-02-09T13:44:31.322Z,100207.16
2019-02-09T13:47:03.321Z,100217.14
2019-02-09T13:49:35.338Z,100219.45
2019-02-09T13:52:07.442Z,100236.89
2019-02-09T13:54:38.561Z,100241.11
2019-02-09T13:57:12.806Z,100240.67
2019-02-09T13:59:46.256Z,100238.09
2019-02-09T14:02:19.978Z,100240.08
2019-02-09T14:04:50.615Z,100237.27
2019-02-09T14:07:22.233Z,100237.82
2019-02-09T14:09:53.494Z,100217.26
2019-02-09T14:12:24.200Z,100207.11
2019-02-09T14:14:54.834Z,100235.30
2019-02-09T14:17:26.898Z,100234.89
2019-02-09T14:19:58.542Z,100239.87
2019-02-09T14:22:29.338Z,100236.39
2019-02-09T14:25:00.540Z,100240.14
2019-02-09T14:27:32.110Z,100249.73
2019-02-09T14:30:05.359Z,100246.20
2019-02-09T14:32:36.701Z,100245.41
2019-02-09T14:35:13.248Z,100246.45
2019-02-09T14:37:46.487Z,100244.05
2019-02-09T14:40:20.886Z,100258.17
2019-02-09T14:42:52.222Z,100261.24
2019-02-09T14:45:25.738Z,100263.47
2019-02-09T14:47:58.026Z,100262.65
2019-02-09T14:50:29.242Z,100283.34
2019-02-09T14:53:02.775Z,100306.34
2019-02-09T14:55:35.602Z,100291.56
2019-02-09T14:58:07.362Z,100281.93
2019-02-09T15:00:50.181Z,100287.90
2019-02-09T15:03:27.266Z,100291.28
2019-02-09T15:05:54.938Z,100306.13
2019-02-09T15:08:25.234Z,100286.38
2019-02-09T15:10:56.746Z,100255.61
2019-02-09T15:13:27.522Z,100302.17
2019-02-09T15:16:16.915Z,100290.84
2019-02-09T15:18:50.730Z,100309.17
2019-02-09T15:21:23.279Z,100307.52
2019-02-09T15:23:54.403Z,100317.14
2019-02-09T15:26:25.060Z,100305.73
2019-02-09T15:28:56.643Z,100302.55
2019-02-09T15:31:27.777Z,100309.46
2019-02-09T15:34:01.203Z,100308.55
2019-02-09T15:36:32.438Z,100321.56
2019-02-09T15:39:05.416Z,100307.80
2019-02-09T15:41:36.377Z,100326.94
2019-02-09T15:44:08.286Z,100307.96
2019-02-09T15:46:39.855Z,100320.89
2019-02-09T15:49:12.687Z,100309.83
2019-02-09T15:51:43.834Z,100312.11
2019-02-09T15:54:16.992Z,100311.78
2019-02-09T15:56:47.020Z,100310.73
2019-02-09T15:59:17.301Z,100322.44
2019-02-09T16:01:48.119Z,100332.58
2019-02-09T16:04:19.970Z,100322.97
2019-02-09T16:06:52.381Z,100317.21
2019-02-09T16:09:25.589Z,100317.92
2019-02-09T16:11:56.774Z,100326.41
2019-02-09T16:14:27.878Z,100330.68
2019-02-09T16:16:59.787Z,100325.00
2019-02-09T16:19:38.604Z,100327.41
2019-02-09T16:22:11.027Z,100336.41
2019-02-09T16:24:58.572Z,100333.17
2019-02-09T16:27:31.133Z,100332.34
2019-02-09T16:30:01.783Z,100333.21
2019-02-09T16:32:34.299Z,100336.44
2019-02-09T16:35:06.739Z,100341.84
2019-02-09T16:37:38.366Z,100338.34
2019-02-09T16:40:15.149Z,100337.84
2019-02-09T16:42:50.299Z,100355.70
2019-02-09T16:45:23.757Z,100352.01
2019-02-09T16:47:53.962Z,100349.50
2019-02-09T16:50:24.703Z,100362.33
2019-02-09T16:52:54.917Z,100358.92
2019-02-09T16:55:26.071Z,100356.88
2019-02-09T16:57:56.385Z,100374.19
2019-02-09T17:00:31.893Z,100370.93
2019-02-09T17:03:02.431Z,100367.55
2019-02-09T17:05:33.162Z,100371.16
2019-02-09T17:08:05.985Z,100378.50
2019-02-09T17:10:36.746Z,100376.14
2019-02-09T17:13:07.472Z,100384.28
2019-02-09T17:15:37.967Z,100385.57
2019-02-09T17:18:12.460Z,100386.42
2019-02-09T17:20:43.896Z,100390.41
2019-02-09T17:23:17.282Z,100388.97
2019-02-09T17:25:54.172Z,100404.16
2019-02-09T17:28:26.360Z,100405.52
2019-02-09T17:30:58.437Z,100404.52
2019-02-09T17:33:33.986Z,100407.66
2019-02-09T17:36:06.806Z,100414.03
2019-02-09T17:38:38.213Z,100422.66
2019-02-09T17:41:11.059Z,100416.66
2019-02-09T17:43:44.020Z,100427.20
2019-02-09T17:46:16.404Z,100426.72
2019-02-09T17:48:47.093Z,100427.16
2019-02-09T17:51:18.898Z,100425.69
2019-02-09T17:53:50.720Z,100430.91
2019-02-09T17:56:23.893Z,100421.80
2019-02-09T17:58:54.639Z,100435.77
2019-02-09T18:01:24.958Z,100439.20
2019-02-09T18:03:56.095Z,100440.36
2019-02-09T18:06:27.765Z,100449.05
2019-02-09T18:08:58.812Z,100439.55
2019-02-09T18:11:30.352Z,100445.64
2019-02-09T18:14:01.070Z,100459.02
2019-02-09T18:16:31.717Z,100463.57
2019-02-09T18:19:01.953Z,100459.45
2019-02-09T18:21:33.322Z,100462.11
2019-02-09T18:24:04.096Z,100453.52
2019-02-09T18:26:35.667Z,100468.45
2019-02-09T18:29:06.296Z,100469.36
2019-02-09T18:31:38.226Z,100473.88
2019-02-09T18:34:09.345Z,100469.80
2019-02-09T18:36:39.568Z,100469.58
2019-02-09T18:39:12.685Z,100465.16
2019-02-09T18:41:44.703Z,100467.02
2019-02-09T18:44:15.902Z,100458.78
2019-02-09T18:46:46.609Z,100461.81
2019-02-09T18:49:17.195Z,100466.30
2019-02-09T18:51:47.402Z,100463.01
2019-02-09T18:54:18.446Z,100466.50
2019-02-09T18:56:50.467Z,100463.09
2019-02-09T18:59:20.720Z,100462.66
2019-02-09T19:01:52.101Z,100464.64
2019-02-09T19:04:22.303Z,100464.67
2019-02-09T19:06:53.978Z,100472.52
2019-02-09T19:09:24.268Z,100476.17
2019-02-09T19:11:54.513Z,100487.59
2019-02-09T19:14:26.595Z,100480.92
2019-02-09T19:16:57.906Z,100484.14
2019-02-09T19:19:28.236Z,100480.23
2019-02-09T19:21:58.554Z,100475.16
2019-02-09T19:24:28.856Z,100474.70
2019-02-09T19:26:59.617Z,100480.34
2019-02-09T19:29:31.350Z,100483.75
2019-02-09T19:32:01.601Z,100479.88
2019-02-09T19:34:33.381Z,100478.83
2019-02-09T19:37:05.630Z,100479.89
2019-02-09T19:39:36.716Z,100483.48
2019-02-09T19:42:08.270Z,100485.75
2019-02-09T19:44:40.396Z,100480.44
2019-02-09T19:47:11.460Z,100482.00
2019-02-09T19:49:43.546Z,100487.54
2019-02-09T19:52:16.151Z,100484.39
2019-02-09T19:54:47.945Z,100478.93
2019-02-09T19:57:21.591Z,100476.96
2019-02-09T19:59:54.474Z,100472.42
2019-02-09T20:02:25.616Z,100468.19
2019-02-09T20:04:56.688Z,100468.44
2019-02-09T20:07:28.536Z,100461.72
2019-02-09T20:09:59.691Z,100467.30
2019-02-09T20:12:29.996Z,100460.02
2019-02-09T20:15:03.809Z,100453.34
2019-02-09T20:17:37.632Z,100451.13
2019-02-09T20:20:10.699Z,100445.02
2019-02-09T20:22:42.720Z,100452.07
2019-02-09T20:25:16.862Z,100434.95
2019-02-09T20:27:50.100Z,100438.84
2019-02-09T20:30:32.177Z,100434.27
2019-02-09T20:33:03.366Z,100437.24
2019-02-09T20:35:33.588Z,100440.89
2019-02-09T20:38:05.464Z,100443.44
2019-02-09T20:40:42.206Z,100445.59
2019-02-09T20:43:15.175Z,100446.01
2019-02-09T20:45:51.066Z,100441.64
2019-02-09T20:48:23.075Z,100448.38
2019-02-09T20:50:53.753Z,100446.16
2019-02-09T20:53:24.587Z,100441.82
2019-02-09T20:55:54.809Z,100439.95
2019-02-09T20:58:25.832Z,100436.17
2019-02-09T21:00:58.273Z,100436.13
2019-02-09T21:03:29.817Z,100439.16
2019-02-09T21:06:01.319Z,100438.23
2019-02-09T21:08:33.006Z,100434.38
2019-02-09T21:11:04.510Z,100445.56
2019-02-09T21:13:35.982Z,100442.98
2019-02-09T21:16:09.071Z,100435.06
2019-02-09T21:18:40.973Z,100439.77
2019-02-09T21:21:12.522Z,100436.08
2019-02-09T21:23:43.999Z,100435.07
2019-02-09T21:26:15.052Z,100433.29
2019-02-09T21:28:46.110Z,100422.42
2019-02-09T21:31:17.274Z,100430.22
2019-02-09T21:33:48.914Z,100434.66
2019-02-09T21:36:20.363Z,100440.20
2019-02-09T21:38:53.067Z,100433.92
2019-02-09T21:41:25.137Z,100430.73
2019-02-09T21:43:55.887Z,100432.19
2019-02-09T21:46:27.505Z,100432.16
2019-02-09T21:48:58.265Z,100427.56
2019-02-09T21:51:29.463Z,100426.41
2019-02-09T21:54:00.786Z,100432.59
2019-02-09T21:56:32.467Z,100434.66
2019-02-09T21:59:05.059Z,100420.69
2019-02-09T22:01:37.057Z,100421.73
2019-02-09T22:04:08.082Z,100421.73
2019-02-09T22:06:39.551Z,100420.51
2019-02-09T22:09:10.461Z,100411.98
2019-02-09T22:11:40.724Z,100413.48
2019-02-09T22:14:12.017Z,100409.41
2019-02-09T22:16:42.788Z,100406.35
2019-02-09T22:19:13.009Z,100416.02
2019-02-09T22:21:44.261Z,100414.30
2019-02-09T22:24:15.477Z,100407.75
2019-02-09T22:26:47.272Z,100410.92
2019-02-09T22:29:18.289Z,100408.91
2019-02-09T22:31:50.911Z,100409.48
2019-02-09T22:34:23.029Z,100403.37
2019-02-09T22:36:55.748Z,100403.27
2019-02-09T22:39:25.994Z,100398.59
2019-02-09T22:41:58.104Z,100404.92
2019-02-09T22:44:28.696Z,100398.00
2019-02-09T22:47:02.397Z,100395.47
2019-02-09T22:49:32.688Z,100392.05
2019-02-09T22:52:03.384Z,100386.18
2019-02-09T22:54:34.978Z,100377.66
2019-02-09T22:57:06.430Z,100375.14
2019-02-09T22:59:38.684Z,100373.00
2019-02-09T23:02:10.181Z,100364.64
2019-02-09T23:05:27.355Z,100356.28
2019-02-09T23:08:04.347Z,100350.96
2019-02-09T23:10:35.322Z,100342.00
2019-02-09T23:13:07.943Z,100334.93
2019-02-09T23:15:39.092Z,100330.12
2019-02-09T23:18:09.309Z,100326.27
2019-02-09T23:20:39.512Z,100334.81
2019-02-09T23:23:10.642Z,100333.33
2019-02-09T23:25:42.418Z,100321.73
2019-02-09T23:28:13.362Z,100323.45
2019-02-09T23:30:44.621Z,100318.91
2019-02-09T23:33:16.303Z,100319.75
2019-02-09T23:35:47.405Z,100314.66
2019-02-09T23:38:19.575Z,100309.94
2019-02-09T23:40:49.982Z,100304.81
2019-02-09T23:43:20.682Z,100300.39
2019-02-09T23:45:51.801Z,100287.45
2019-02-09T23:48:22.462Z,100283.45
2019-02-09T23:50:53.571Z,100288.95
2019-02-09T23:53:25.599Z,100289.36
2019-02-09T23:55:56.866Z,100277.01
2019-02-09T23:58:27.110Z,100269.22
